Time,TemperatureF,DewpointF,PressureIn,WindDirection,WindDirectionDegrees,WindSpeedMPH,WindSpeedGustMPH,Humidity,HourlyPrecipIn,Conditions,Clouds,dailyrainin,SoftwareType,DateUTC
2013-01-01 00:00:00,35.2,15.5,29.88,NW,326,2.7,7.2,44,0.00,,,0.00,VWS V12.08,2013-01-01 05:00:00,
2013-01-01 00:08:00,35.2,15.5,29.88,NW,326,2.7,7.2,44,0.00,,,0.00,VWS V12.08,2013-01-01 05:08:00,
2013-01-01 00:14:00,35.2,15.5,29.85,WNW,293,0.0,4.0,44,0.00,,,0.00,VWS V12.08,2013-01-01 05:14:00,
2013-01-01 00:20:00,35.2,15.5,29.85,NNW,340,3.1,6.3,44,0.00,,,0.00,VWS V12.08,2013-01-01 05:20:00,
2013-01-01 00:24:00,35.4,15.7,29.85,SW,226,3.1,6.3,44,0.00,,,0.00,VWS V12.08,2013-01-01 05:24:00,
2013-01-01 00:35:00,35.4,15.7,29.85,NNW,348,4.5,5.8,44,0.00,,,0.00,VWS V12.08,2013-01-01 05:35:00,
2013-01-01 00:40:00,35.4,15.7,29.85,NNW,344,2.7,5.8,44,0.00,,,0.00,VWS V12.08,2013-01-01 05:40:00,
2013-01-01 00:44:00,35.4,15.7,29.85,NNW,344,2.7,5.8,44,0.00,,,0.00,VWS V12.08,2013-01-01 05:44:00,
2013-01-01 00:49:00,35.4,15.7,29.85,WSW,257,2.7,5.8,44,0.00,,,0.00,VWS V12.08,2013-01-01 05:49:00,
2013-01-01 00:59:00,35.4,15.2,29.85,WSW,257,2.7,5.8,43,0.00,,,0.00,VWS V12.08,2013-01-01 05:59:00,
2013-01-01 01:00:00,35.4,15.2,29.85,NNW,340,4.9,6.3,43,0.00,,,0.00,VWS V12.08,2013-01-01 06:00:00,
2013-01-01 01:10:00,35.4,15.2,29.85,NNW,332,2.7,4.9,43,0.00,,,0.00,VWS V12.08,2013-01-01 06:10:00,
2013-01-01 01:20:00,35.4,15.2,29.85,WNW,290,3.1,5.8,43,0.00,,,0.00,VWS V12.08,2013-01-01 06:20:00,
2013-01-01 01:29:00,35.4,15.2,29.85,WSW,242,2.7,6.3,43,0.00,,,0.00,VWS V12.08,2013-01-01 06:29:00,
2013-01-01 01:35:00,35.4,15.2,29.85,WSW,251,2.7,6.3,43,0.00,,,0.00,VWS V12.08,2013-01-01 06:35:00,
2013-01-01 01:44:00,35.4,15.2,29.85,WNW,292,2.7,6.3,43,0.00,,,0.00,VWS V12.08,2013-01-01 06:44:00,
2013-01-01 01:50:00,35.4,15.2,29.85,WSW,243,4.0,4.0,43,0.00,,,0.00,VWS V12.08,2013-01-01 06:50:00,
2013-01-01 01:59:00,35.4,15.2,29.85,WNW,291,2.7,4.9,43,0.00,,,0.00,VWS V12.08,2013-01-01 06:59:00,
2013-01-01 02:07:00,35.4,15.2,29.85,NW,318,2.7,4.9,43,0.00,,,0.00,VWS V12.08,2013-01-01 07:07:00,
2013-01-01 02:14:00,35.4,15.2,29.85,WSW,251,0.0,4.9,43,0.00,,,0.00,VWS V12.08,2013-01-01 07:14:00,
2013-01-01 02:20:00,35.4,15.2,29.85,WSW,244,2.7,4.9,43,0.00,,,0.00,VWS V12.08,2013-01-01 07:20:00,
2013-01-01 02:29:00,35.4,15.2,29.85,NW,312,2.2,4.9,43,0.00,,,0.00,VWS V12.08,2013-01-01 07:29:00,
2013-01-01 02:35:00,35.4,15.2,29.85,NNW,335,2.7,4.9,43,0.00,,,0.00,VWS V12.08,2013-01-01 07:35:00,
2013-01-01 02:44:00,35.6,15.3,29.85,West,272,3.6,4.9,43,0.00,,,0.00,VWS V12.08,2013-01-01 07:44:00,
2013-01-01 02:50:00,35.6,15.3,29.85,North,353,4.0,5.8,43,0.00,,,0.00,VWS V12.08,2013-01-01 07:50:00,
2013-01-01 02:59:00,35.6,15.3,29.85,WSW,247,2.7,5.8,43,0.00,,,0.00,VWS V12.08,2013-01-01 07:59:00,
2013-01-01 03:09:00,35.6,15.3,29.85,WSW,251,0.0,5.8,43,0.00,,,0.00,VWS V12.08,2013-01-01 08:09:00,
2013-01-01 03:14:00,35.8,15.5,29.85,West,281,2.7,4.0,43,0.00,,,0.00,VWS V12.08,2013-01-01 08:14:00,
2013-01-01 03:20:00,35.8,15.5,29.85,WSW,245,4.0,4.0,43,0.00,,,0.00,VWS V12.08,2013-01-01 08:20:00,
2013-01-01 03:29:00,36.0,15.6,29.85,NW,325,4.0,6.3,43,0.00,,,0.00,VWS V12.08,2013-01-01 08:29:00,
2013-01-01 03:35:00,36.1,15.8,29.85,WSW,251,2.7,6.3,43,0.00,,,0.00,VWS V12.08,2013-01-01 08:35:00,
2013-01-01 03:44:00,36.1,15.3,29.83,NW,325,4.9,8.1,42,0.00,,,0.00,VWS V12.08,2013-01-01 08:44:00,
2013-01-01 03:50:00,36.3,15.4,29.83,West,263,3.1,5.8,42,0.00,,,0.00,VWS V12.08,2013-01-01 08:50:00,
2013-01-01 03:59:00,36.3,15.4,29.83,NNW,334,5.4,5.8,42,0.00,,,0.00,VWS V12.08,2013-01-01 08:59:00,
2013-01-01 04:08:00,36.3,15.4,29.83,WSW,257,2.7,5.8,42,0.00,,,0.00,VWS V12.08,2013-01-01 09:08:00,
2013-01-01 04:14:00,36.5,15.6,29.83,WNW,293,3.1,6.3,42,0.00,,,0.00,VWS V12.08,2013-01-01 09:14:00,
2013-01-01 04:20:00,36.5,15.6,29.83,NNW,340,2.2,6.3,42,0.00,,,0.00,VWS V12.08,2013-01-01 09:20:00,
2013-01-01 04:29:00,36.3,15.4,29.83,NNW,327,3.1,7.6,42,0.00,,,0.00,VWS V12.08,2013-01-01 09:29:00,
2013-01-01 04:35:00,36.3,15.4,29.83,NW,321,3.6,7.6,42,0.00,,,0.00,VWS V12.08,2013-01-01 09:35:00,
2013-01-01 04:44:00,36.1,15.3,29.83,WSW,253,2.2,7.6,42,0.00,,,0.00,VWS V12.08,2013-01-01 09:44:00,
2013-01-01 04:50:00,36.1,15.3,29.83,West,278,2.7,5.4,42,0.00,,,0.00,VWS V12.08,2013-01-01 09:50:00,
2013-01-01 05:00:00,36.1,15.3,29.83,WSW,252,4.0,6.3,42,0.00,,,0.00,VWS V12.08,2013-01-01 10:00:00,
2013-01-01 05:08:00,36.3,15.4,29.83,NW,305,3.6,6.3,42,0.00,,,0.00,VWS V12.08,2013-01-01 10:08:00,
2013-01-01 05:15:00,36.3,15.4,29.83,North,353,4.9,5.4,42,0.00,,,0.00,VWS V12.08,2013-01-01 10:15:00,
2013-01-01 05:20:00,36.3,15.4,29.83,West,261,2.7,5.8,42,0.00,,,0.00,VWS V12.08,2013-01-01 10:20:00,
2013-01-01 05:25:00,36.3,15.4,29.83,WNW,296,3.1,3.6,42,0.00,,,0.00,VWS V12.08,2013-01-01 10:25:00,
2013-01-01 05:35:00,36.1,15.3,29.83,WSW,241,2.7,5.4,42,0.00,,,0.00,VWS V12.08,2013-01-01 10:35:00,
2013-01-01 05:45:00,36.1,15.3,29.83,NNE,22,4.0,8.7,42,0.00,,,0.00,VWS V12.08,2013-01-01 10:45:00,
2013-01-01 05:50:00,36.1,15.3,29.83,North,349,3.1,7.6,42,0.00,,,0.00,VWS V12.08,2013-01-01 10:50:00,
2013-01-01 06:00:00,36.1,15.3,29.83,NW,318,0.0,7.6,42,0.00,,,0.00,VWS V12.08,2013-01-01 11:00:00,
2013-01-01 06:06:00,36.1,14.7,29.83,WSW,240,3.6,8.3,41,0.00,,,0.00,VWS V12.08,2013-01-01 11:06:00,
2013-01-01 06:15:00,36.1,14.7,29.83,NNW,335,5.4,8.1,41,0.00,,,0.00,VWS V12.08,2013-01-01 11:15:00,
2013-01-01 06:20:00,36.1,14.7,29.83,NW,320,8.1,8.1,41,0.00,,,0.00,VWS V12.08,2013-01-01 11:20:00,
2013-01-01 06:30:00,36.1,14.7,29.83,North,349,5.4,6.3,41,0.00,,,0.00,VWS V12.08,2013-01-01 11:30:00,
2013-01-01 06:36:00,36.1,14.7,29.83,SW,229,6.3,6.3,41,0.00,,,0.00,VWS V12.08,2013-01-01 11:36:00,
2013-01-01 06:45:00,36.1,14.7,29.83,West,259,2.7,8.1,41,0.00,,,0.00,VWS V12.08,2013-01-01 11:45:00,
2013-01-01 06:50:00,36.1,14.7,29.83,WNW,298,2.7,8.3,41,0.00,,,0.00,VWS V12.08,2013-01-01 11:50:00,
2013-01-01 06:59:00,36.1,14.7,29.83,West,269,2.7,8.3,41,0.00,,,0.00,VWS V12.08,2013-01-01 11:59:00,
2013-01-01 07:07:00,36.0,14.6,29.83,West,261,2.7,8.3,41,0.00,,,0.00,VWS V12.08,2013-01-01 12:07:00,
2013-01-01 07:14:00,36.0,14.6,29.83,WSW,243,2.7,8.1,41,0.00,,,0.00,VWS V12.08,2013-01-01 12:14:00,
2013-01-01 07:19:00,36.0,14.6,29.83,NW,311,4.9,8.1,41,0.00,,,0.00,VWS V12.08,2013-01-01 12:19:00,
2013-01-01 07:29:00,36.0,14.6,29.85,NW,315,3.1,6.3,41,0.00,,,0.00,VWS V12.08,2013-01-01 12:29:00,
2013-01-01 07:34:00,36.1,14.7,29.85,NNW,335,5.8,6.3,41,0.00,,,0.00,VWS V12.08,2013-01-01 12:34:00,
2013-01-01 07:44:00,36.1,14.7,29.85,NW,326,4.9,8.1,41,0.00,,,0.00,VWS V12.08,2013-01-01 12:44:00,
2013-01-01 07:50:00,36.1,14.7,29.85,NW,307,2.2,5.8,41,0.00,,,0.00,VWS V12.08,2013-01-01 12:50:00,
2013-01-01 07:59:00,36.0,14.6,29.85,WSW,237,4.0,6.3,41,0.00,,,0.00,VWS V12.08,2013-01-01 12:59:00,
2013-01-01 08:08:00,36.0,14.6,29.85,NNE,21,4.0,6.3,41,0.00,,,0.00,VWS V12.08,2013-01-01 13:08:00,
2013-01-01 08:14:00,36.1,14.7,29.85,WSW,241,2.2,8.3,41,0.00,,,0.00,VWS V12.08,2013-01-01 13:14:00,
2013-01-01 08:19:00,36.1,14.7,29.85,WSW,246,3.1,8.3,41,0.00,,,0.00,VWS V12.08,2013-01-01 13:19:00,
2013-01-01 08:29:00,36.3,14.9,29.85,West,266,3.6,5.8,41,0.00,,,0.00,VWS V12.08,2013-01-01 13:29:00,
2013-01-01 08:35:00,36.7,15.2,29.85,NNW,328,5.8,6.7,41,0.00,,,0.00,VWS V12.08,2013-01-01 13:35:00,
2013-01-01 08:44:00,36.9,15.4,29.85,North,2,4.9,10.1,41,0.00,,,0.00,VWS V12.08,2013-01-01 13:44:00,
2013-01-01 08:50:00,37.0,15.5,29.85,NW,315,4.0,8.1,41,0.00,,,0.00,VWS V12.08,2013-01-01 13:50:00,
2013-01-01 08:59:00,37.0,15.5,29.85,NNW,328,5.4,8.1,41,0.00,,,0.00,VWS V12.08,2013-01-01 13:59:00,
2013-01-01 09:08:00,37.2,15.7,29.85,NW,305,3.6,8.7,41,0.00,,,0.00,VWS V12.08,2013-01-01 14:08:00,
2013-01-01 09:14:00,37.4,15.9,29.85,WNW,285,5.4,6.3,41,0.00,,,0.00,VWS V12.08,2013-01-01 14:14:00,
2013-01-01 09:20:00,37.6,16.0,29.85,SW,236,4.0,6.3,41,0.00,,,0.00,VWS V12.08,2013-01-01 14:20:00,
2013-01-01 09:29:00,37.9,16.4,29.85,WNW,283,2.7,5.8,41,0.00,,,0.00,VWS V12.08,2013-01-01 14:29:00,
2013-01-01 09:35:00,38.1,16.5,29.85,WSW,246,4.0,8.3,41,0.00,,,0.00,VWS V12.08,2013-01-01 14:35:00,
2013-01-01 09:44:00,38.5,16.8,29.85,WSW,245,3.1,8.3,41,0.00,,,0.00,VWS V12.08,2013-01-01 14:44:00,
2013-01-01 09:50:00,38.7,17.0,29.85,NW,318,3.6,7.6,41,0.00,,,0.00,VWS V12.08,2013-01-01 14:50:00,
2013-01-01 09:59:00,39.0,17.3,29.85,NW,309,2.7,7.6,41,0.00,,,0.00,VWS V12.08,2013-01-01 14:59:00,
2013-01-01 10:08:00,38.8,16.6,29.85,NNW,340,5.4,8.7,40,0.00,,,0.00,VWS V12.08,2013-01-01 15:08:00,
2013-01-01 10:14:00,38.5,16.3,29.85,WSW,241,3.1,6.3,40,0.00,,,0.00,VWS V12.08,2013-01-01 15:14:00,
2013-01-01 10:22:00,38.7,16.4,29.85,North,353,5.4,6.3,40,0.00,,,0.00,VWS V12.08,2013-01-01 15:22:00,
2013-01-01 10:29:00,38.7,16.4,29.85,WNW,297,3.1,8.3,40,0.00,,,0.00,VWS V12.08,2013-01-01 15:29:00,
2013-01-01 10:35:00,38.7,16.4,29.85,NW,313,4.9,8.3,40,0.00,,,0.00,VWS V12.08,2013-01-01 15:35:00,
2013-01-01 10:44:00,38.5,16.3,29.85,NNW,337,3.6,10.5,40,0.00,,,0.00,VWS V12.08,2013-01-01 15:44:00,
2013-01-01 10:50:00,38.3,16.1,29.85,NNW,330,4.9,8.1,40,0.00,,,0.00,VWS V12.08,2013-01-01 15:50:00,
2013-01-01 10:59:00,38.1,15.9,29.85,WSW,250,6.3,8.1,40,0.04,,,0.04,VWS V12.08,2013-01-01 15:59:00,
2013-01-01 11:08:00,38.1,15.9,29.85,West,280,3.6,8.1,40,0.04,,,0.04,VWS V12.08,2013-01-01 16:08:00,
2013-01-01 11:14:00,37.9,15.8,29.83,West,273,3.1,6.3,40,0.04,,,0.04,VWS V12.08,2013-01-01 16:14:00,
2013-01-01 11:20:00,37.9,15.8,29.83,WSW,237,3.6,8.3,40,0.04,,,0.04,VWS V12.08,2013-01-01 16:20:00,
2013-01-01 11:30:00,37.9,15.8,29.83,NW,307,5.4,7.6,40,0.04,,,0.04,VWS V12.08,2013-01-01 16:30:00,
2013-01-01 11:35:00,37.9,15.8,29.83,NW,305,5.8,8.3,40,0.04,,,0.04,VWS V12.08,2013-01-01 16:35:00,
2013-01-01 11:44:00,37.9,15.2,29.83,WNW,291,5.4,8.3,39,0.04,,,0.04,VWS V12.08,2013-01-01 16:44:00,
2013-01-01 11:50:00,37.9,15.2,29.83,WSW,250,5.4,8.3,39,0.04,,,0.04,VWS V12.08,2013-01-01 16:50:00,
2013-01-01 11:59:00,37.8,15.0,29.83,NNW,327,4.0,8.7,39,0.04,,,0.04,VWS V12.08,2013-01-01 16:59:00,
2013-01-01 12:00:00,37.6,14.9,29.83,NW,324,4.9,8.7,39,0.04,,,0.04,VWS V12.08,2013-01-01 17:00:00,
2013-01-01 12:10:00,37.6,14.9,29.83,North,3,6.3,6.3,39,0.04,,,0.08,VWS V12.08,2013-01-01 17:10:00,
2013-01-01 12:16:00,37.6,14.9,29.83,WNW,301,3.1,7.2,39,0.04,,,0.08,VWS V12.08,2013-01-01 17:16:00,
2013-01-01 12:21:00,37.6,14.9,29.83,WSW,245,3.1,7.2,39,0.04,,,0.08,VWS V12.08,2013-01-01 17:21:00,
2013-01-01 12:30:00,37.6,14.9,29.83,WNW,300,2.2,5.8,39,0.04,,,0.08,VWS V12.08,2013-01-01 17:30:00,
2013-01-01 12:36:00,37.6,14.9,29.83,West,277,2.7,5.8,39,0.04,,,0.08,VWS V12.08,2013-01-01 17:36:00,
2013-01-01 12:45:00,37.4,14.7,29.83,West,274,3.1,8.3,39,0.04,,,0.08,VWS V12.08,2013-01-01 17:45:00,
2013-01-01 12:51:00,37.4,14.7,29.80,NW,318,2.7,5.8,39,0.04,,,0.08,VWS V12.08,2013-01-01 17:51:00,
2013-01-01 13:00:00,37.4,14.7,29.80,WNW,287,3.1,7.6,39,0.04,,,0.08,VWS V12.08,2013-01-01 18:00:00,
2013-01-01 13:11:00,37.0,13.2,29.83,NNW,327,6.3,0.0,37,0.04,,,0.08,VWS V12.08,2013-01-01 18:11:00,
2013-01-01 13:21:00,36.7,12.9,29.83,SW,218,4.9,8.7,37,0.04,,,0.08,VWS V12.08,2013-01-01 18:21:00,
2013-01-01 13:30:00,36.7,12.9,29.83,West,269,6.3,8.3,37,0.00,,,0.08,VWS V12.08,2013-01-01 18:30:00,
2013-01-01 13:37:00,36.5,12.1,29.83,WNW,302,5.8,8.7,36,0.00,,,0.08,VWS V12.08,2013-01-01 18:37:00,
2013-01-01 13:45:00,36.5,12.1,29.83,NNW,327,3.6,8.7,36,0.00,,,0.08,VWS V12.08,2013-01-01 18:45:00,
2013-01-01 13:52:00,36.5,12.1,29.83,NNW,334,3.6,8.3,36,0.00,,,0.08,VWS V12.08,2013-01-01 18:52:00,
2013-01-01 13:59:00,36.3,11.3,29.83,WSW,243,3.6,8.3,35,0.00,,,0.08,VWS V12.08,2013-01-01 18:59:00,
2013-01-01 14:08:00,36.3,11.3,29.83,NW,304,6.3,8.7,35,0.00,,,0.08,VWS V12.08,2013-01-01 19:08:00,
2013-01-01 14:15:00,36.3,11.3,29.83,NNW,330,2.7,11.0,35,0.00,,,0.08,VWS V12.08,2013-01-01 19:15:00,
2013-01-01 14:24:00,36.1,11.8,29.83,WSW,258,2.7,11.0,36,0.00,,,0.08,VWS V12.08,2013-01-01 19:24:00,
2013-01-01 14:29:00,36.1,11.8,29.83,WNW,288,3.1,5.4,36,0.00,,,0.08,VWS V12.08,2013-01-01 19:29:00,
2013-01-01 14:35:00,36.1,11.1,29.83,WNW,286,3.6,5.8,35,0.00,,,0.08,VWS V12.08,2013-01-01 19:35:00,
2013-01-01 14:44:00,36.1,10.5,29.83,NNW,344,3.6,8.1,34,0.00,,,0.08,VWS V12.08,2013-01-01 19:44:00,
2013-01-01 14:50:00,36.1,11.1,29.83,North,0,4.0,5.8,35,0.00,,,0.08,VWS V12.08,2013-01-01 19:50:00,
2013-01-01 14:59:00,36.0,10.3,29.83,WSW,244,4.0,6.3,34,0.00,,,0.08,VWS V12.08,2013-01-01 19:59:00,
2013-01-01 15:00:00,36.0,11.0,29.83,NW,310,2.7,6.3,35,0.00,,,0.08,VWS V12.08,2013-01-01 20:00:00,
2013-01-01 15:17:00,35.8,10.2,29.83,NNW,331,3.6,8.7,34,0.00,,,0.08,VWS V12.08,2013-01-01 20:17:00,
2013-01-01 15:25:00,35.6,10.0,29.83,NNW,338,4.0,10.1,34,0.00,,,0.08,VWS V12.08,2013-01-01 20:25:00,
2013-01-01 15:35:00,35.4,9.9,29.83,NW,323,3.6,10.1,34,0.00,,,0.08,VWS V12.08,2013-01-01 20:35:00,
2013-01-01 15:44:00,35.4,10.5,29.83,North,5,2.7,10.1,35,0.00,,,0.08,VWS V12.08,2013-01-01 20:44:00,
2013-01-01 15:55:00,35.2,10.3,29.83,NW,326,4.0,5.4,35,0.00,,,0.08,VWS V12.08,2013-01-01 20:55:00,
2013-01-01 16:00:00,35.2,9.7,29.83,NW,319,4.0,7.6,34,0.00,,,0.08,VWS V12.08,2013-01-01 21:00:00,
2013-01-01 16:11:00,35.1,10.2,29.83,SW,236,2.7,5.4,35,0.00,,,0.08,VWS V12.08,2013-01-01 21:11:00,
2013-01-01 16:20:00,35.1,9.5,29.83,NW,326,3.6,5.4,34,0.00,,,0.08,VWS V12.08,2013-01-01 21:20:00,
2013-01-01 16:25:00,35.1,10.2,29.83,NNW,328,3.6,5.4,35,0.00,,,0.08,VWS V12.08,2013-01-01 21:25:00,
2013-01-01 16:35:00,34.9,10.0,29.85,SW,234,3.1,6.3,35,0.00,,,0.08,VWS V12.08,2013-01-01 21:35:00,
2013-01-01 16:44:00,34.9,9.4,29.85,West,261,2.2,6.3,34,0.00,,,0.08,VWS V12.08,2013-01-01 21:44:00,
2013-01-01 16:51:00,34.7,9.2,29.85,NW,322,3.6,5.8,34,0.00,,,0.08,VWS V12.08,2013-01-01 21:51:00,
2013-01-01 17:00:00,34.7,9.2,29.85,WNW,286,3.1,5.8,34,0.00,,,0.08,VWS V12.08,2013-01-01 22:00:00,
2013-01-01 17:21:00,34.3,8.9,29.88,NW,313,2.7,7.6,34,0.00,,,0.08,VWS V12.08,2013-01-01 22:21:00,
2013-01-01 17:29:00,34.0,7.9,29.88,NW,314,4.9,9.2,33,0.00,,,0.08,VWS V12.08,2013-01-01 22:29:00,
2013-01-01 17:36:00,33.8,7.8,29.88,West,268,8.3,9.2,33,0.00,,,0.08,VWS V12.08,2013-01-01 22:36:00,
2013-01-01 17:45:00,33.6,7.6,29.88,WNW,290,5.4,9.2,33,0.00,,,0.08,VWS V12.08,2013-01-01 22:45:00,
2013-01-01 17:50:00,33.6,7.6,29.88,NW,320,5.8,5.8,33,0.00,,,0.08,VWS V12.08,2013-01-01 22:50:00,
2013-01-01 17:59:00,33.4,7.4,29.88,North,353,7.6,7.6,33,0.00,,,0.08,VWS V12.08,2013-01-01 22:59:00,
2013-01-01 18:09:00,33.3,7.3,29.88,NNW,340,4.0,7.6,33,0.00,,,0.08,VWS V12.08,2013-01-01 23:09:00,
2013-01-01 18:14:00,33.1,6.4,29.88,WSW,240,4.0,7.6,32,0.00,,,0.08,VWS V12.08,2013-01-01 23:14:00,
2013-01-01 18:20:00,33.1,7.1,29.88,NW,314,6.3,7.6,33,0.00,,,0.08,VWS V12.08,2013-01-01 23:20:00,
2013-01-01 18:29:00,32.9,6.3,29.88,West,279,4.0,7.6,32,0.00,,,0.08,VWS V12.08,2013-01-01 23:29:00,
2013-01-01 18:36:00,32.9,6.3,29.91,NW,320,8.1,8.1,32,0.00,,,0.08,VWS V12.08,2013-01-01 23:36:00,
2013-01-01 18:45:00,32.7,6.1,29.91,West,268,5.8,8.3,32,0.00,,,0.08,VWS V12.08,2013-01-01 23:45:00,
2013-01-01 18:51:00,32.9,6.3,29.91,WNW,294,4.0,5.8,32,0.00,,,0.08,VWS V12.08,2013-01-01 23:51:00,
2013-01-01 18:59:00,32.7,6.1,29.91,NW,310,4.0,8.3,32,0.00,,,0.08,VWS V12.08,2013-01-01 23:59:00,
2013-01-01 19:06:00,32.7,6.1,29.91,NW,304,2.7,8.3,32,0.00,,,0.08,VWS V12.08,2013-01-02 00:06:00,
2013-01-01 19:15:00,32.5,6.0,29.91,WNW,294,4.0,9.6,32,0.00,,,0.08,VWS V12.08,2013-01-02 00:15:00,
2013-01-01 19:20:00,32.5,6.0,29.91,NW,322,6.3,9.6,32,0.00,,,0.08,VWS V12.08,2013-01-02 00:20:00,
2013-01-01 19:25:00,32.5,6.0,29.91,NNW,330,4.0,5.4,32,0.00,,,0.08,VWS V12.08,2013-01-02 00:25:00,
2013-01-01 19:35:00,32.5,6.0,29.91,NW,314,3.1,8.1,32,0.00,,,0.08,VWS V12.08,2013-01-02 00:35:00,
2013-01-01 19:45:00,32.4,5.8,29.91,NW,323,6.3,8.1,32,0.00,,,0.08,VWS V12.08,2013-01-02 00:45:00,
2013-01-01 19:50:00,32.2,5.7,29.91,NW,323,5.8,6.3,32,0.00,,,0.08,VWS V12.08,2013-01-02 00:50:00,
2013-01-01 19:59:00,32.2,5.7,29.91,WNW,296,4.0,8.1,32,0.00,,,0.08,VWS V12.08,2013-01-02 00:59:00,
2013-01-01 20:08:00,32.2,5.7,29.91,NW,322,2.7,8.1,32,0.00,,,0.08,VWS V12.08,2013-01-02 01:08:00,
2013-01-01 20:15:00,31.8,5.3,29.91,NNW,334,5.4,8.1,32,0.00,,,0.08,VWS V12.08,2013-01-02 01:15:00,
2013-01-01 20:20:00,31.8,5.3,29.91,North,4,4.9,9.6,32,0.00,,,0.08,VWS V12.08,2013-01-02 01:20:00,
2013-01-01 20:30:00,31.8,5.3,29.91,NNW,332,2.2,6.3,32,0.00,,,0.08,VWS V12.08,2013-01-02 01:30:00,
2013-01-01 20:35:00,31.8,5.3,29.91,NW,317,6.3,10.1,32,0.00,,,0.08,VWS V12.08,2013-01-02 01:35:00,
2013-01-01 20:45:00,31.6,5.2,29.94,NNW,328,4.0,10.1,32,0.00,,,0.08,VWS V12.08,2013-01-02 01:45:00,
2013-01-01 20:50:00,31.5,5.0,29.94,NNW,336,7.6,10.1,32,0.00,,,0.08,VWS V12.08,2013-01-02 01:50:00,
2013-01-01 20:59:00,31.5,5.0,29.94,NNW,333,3.1,10.1,32,0.00,,,0.08,VWS V12.08,2013-01-02 01:59:00,
2013-01-01 21:07:00,31.3,4.9,29.94,NNW,348,3.1,10.1,32,0.00,,,0.08,VWS V12.08,2013-01-02 02:07:00,
2013-01-01 21:14:00,31.3,4.9,29.94,NW,326,3.1,8.1,32,0.00,,,0.08,VWS V12.08,2013-01-02 02:14:00,
2013-01-01 21:19:00,31.1,4.7,29.94,NNW,338,5.4,8.1,32,0.00,,,0.08,VWS V12.08,2013-01-02 02:19:00,
2013-01-01 21:29:00,31.1,4.7,29.94,NNW,331,2.7,5.8,32,0.00,,,0.08,VWS V12.08,2013-01-02 02:29:00,
2013-01-01 21:34:00,31.1,4.7,29.94,NNW,332,4.9,6.3,32,0.00,,,0.08,VWS V12.08,2013-01-02 02:34:00,
2013-01-01 21:44:00,31.3,4.9,29.94,West,259,5.4,6.3,32,0.00,,,0.08,VWS V12.08,2013-01-02 02:44:00,
2013-01-01 21:49:00,31.1,4.7,29.94,North,0,5.8,8.3,32,0.00,,,0.08,VWS V12.08,2013-01-02 02:49:00,
2013-01-01 21:59:00,30.9,4.5,29.94,North,0,5.4,8.3,32,0.00,,,0.08,VWS V12.08,2013-01-02 02:59:00,
2013-01-01 22:07:00,30.9,4.5,29.94,WNW,292,3.1,8.3,32,0.00,,,0.08,VWS V12.08,2013-01-02 03:07:00,
2013-01-01 22:14:00,30.9,4.5,29.94,NNW,331,3.6,7.6,32,0.00,,,0.08,VWS V12.08,2013-01-02 03:14:00,
2013-01-01 22:20:00,30.7,4.4,29.94,NW,326,4.0,8.1,32,0.00,,,0.08,VWS V12.08,2013-01-02 03:20:00,
2013-01-01 22:29:00,30.7,4.4,29.94,NW,308,0.0,5.4,32,0.00,,,0.08,VWS V12.08,2013-01-02 03:29:00,
2013-01-01 22:35:00,30.7,4.4,29.94,WNW,293,4.9,5.8,32,0.00,,,0.08,VWS V12.08,2013-01-02 03:35:00,
2013-01-01 22:44:00,30.7,4.4,29.97,NW,319,3.1,5.8,32,0.00,,,0.08,VWS V12.08,2013-01-02 03:44:00,
2013-01-01 22:50:00,30.7,4.4,29.97,North,5,2.7,5.4,32,0.00,,,0.08,VWS V12.08,2013-01-02 03:50:00,
2013-01-01 22:59:00,30.7,4.4,29.97,NNW,333,3.6,6.3,32,0.00,,,0.08,VWS V12.08,2013-01-02 03:59:00,
2013-01-01 23:09:00,30.7,4.4,29.97,NNE,31,2.7,6.3,32,0.00,,,0.08,VWS V12.08,2013-01-02 04:09:00,
2013-01-01 23:14:00,30.6,4.2,29.97,NNW,330,2.7,6.3,32,0.00,,,0.08,VWS V12.08,2013-01-02 04:14:00,
2013-01-01 23:20:00,30.4,4.1,29.97,North,349,4.0,6.3,32,0.00,,,0.08,VWS V12.08,2013-01-02 04:20:00,
2013-01-01 23:29:00,30.2,3.9,29.97,NNW,331,2.7,7.6,32,0.00,,,0.08,VWS V12.08,2013-01-02 04:29:00,
2013-01-01 23:35:00,30.0,3.8,29.97,NNW,337,2.7,7.6,32,0.00,,,0.08,VWS V12.08,2013-01-02 04:35:00,
2013-01-01 23:44:00,29.8,3.6,29.97,NNW,329,3.1,8.3,32,0.00,,,0.08,VWS V12.08,2013-01-02 04:44:00,
2013-01-01 23:50:00,29.7,3.4,29.97,NNW,335,3.6,5.8,32,0.00,,,0.08,VWS V12.08,2013-01-02 04:50:00,
2013-01-01 23:55:00,28.9,2.8,29.97,NNW,333,4.0,7.6,32,0.00,,,0.08,VWS V12.08,2013-01-02 04:55:00,